In Rescue
 
Open Full Screen Window  High Contrast Mode
September 21, 2019 9:11 AM EDT
Weather Information
Wind Direction
  ---
Wind Speed
  00 kt (0 mph)
Wind Gust
  00 kt (0 mph)
Altimeter
30.27 in
Visibility
10 SM
Temperature
22° C
72° F
Dewpoint
19° C
66° F
Humidity
83%
1hr Rain Fall
00.00 in.
24hr Rain Fall
00.00 in.
Sky Condition
Clear
VFR

METAR KI69 211311Z AUTO 00000KT 10SM CLR 22/19 A3027 RMK AO2 T02170185

FAA Disclaimer: The data displayed is for advisory purposes only and is not to be used for flight planning or operations.